Tiempo atmosférico en la estación meteorológica de Caravaca de La Cruz, Murcia (643 m.)



Fecha
DESCASC
Temp. máxima en grados centígrados (hora)
DESCASC
Temp. mínima en grados centígrados (hora)
DESCASC
Temp. media en grados centígrados
DESCASC
Racha de viento máxima en m/sg (hora)
DESCASC
Velocidad máxima media en intervalos de 10 minutos(hora)
DESCASC
Precipitaciones diarias en mm
DESCASC
Precipitaciones de 00:00 a 06:00 en mm
DESCASC
Precipitaciones de 06:00 a 12:00 en mm
DESCASC
Precipitaciones de 12:00 a 18:00 en mm
DESCASC
Precipitaciones de 18:00 a 24:00 en mm
DESCASC
23-06-2019 32.9 (15:00) 13.3 (06:20) 23.1 8.89 (15:30) 5 (18:10) 0 0 0 0 0
22-06-2019 30.9 (17:00) 14.6 (06:20) 22.8 9.17 (14:50) 5.28 (18:50) 0 0 0 0 0
21-06-2019 31.5 (14:50) 13.9 (05:50) 22.7 7.78 (15:50) 4.17 (16:10) 0 0 0 0 0
20-06-2019 33.4 (15:00) 12.7 (00:00) 23.1 10.83 (16:30) 5.56 (16:00) 0 0 0 0 0
19-06-2019 33.2 (16:30) 15 (00:00) 24.1 8.33 (19:20) 4.44 (19:20) 0 0 0 0 0
18-06-2019 33.2 (16:00) 10.5 (00:00) 21.9 8.06 (15:10) 4.17 (19:00) 0 0 0 0 0
17-06-2019 31.8 (15:50) 9.7 (00:00) 20.7 8.89 (17:20) 5.28 (17:20) 0 0 0 0 0
16-06-2019 25.7 (14:10) 10.2 (00:00) 18 6.39 (14:40) 3.61 (14:40) 0 0 0 0 0
15-06-2019 28.7 (15:40) 9.1 (00:00) 18.9 7.78 (16:40) 4.17 (16:40) 0 0 0 0 0
14-06-2019 30.9 (16:50) 15.4 (00:00) 23.1 12.78 (16:10) 6.39 (16:10) 4.6 4.2 0.4 0 0
13-06-2019 25.9 (15:50) 14.3 (00:00) 20.1 7.5 (16:10) 4.17 (18:20) 0 0 0 0 0
12-06-2019 25.2 (15:50) 11.1 (00:00) 18.2 10.56 (16:10) 5.56 (16:50) 0 0 0 0 0
11-06-2019 31.7 (14:50) 13.2 (00:00) 22.5 10.83 (19:50) 6.11 (20:00) 0 0 0 0 0
10-06-2019 31.4 (16:20) 15.4 (00:00) 23.4 10 (15:50) 4.44 (19:30) 0 0 0 0 0
09-06-2019 28.8 (16:30) 15.5 (00:00) 22.1 7.5 (18:20) 3.89 (18:20) 0 0 0 0 0
08-06-2019 26.6 (14:00) 10.5 (00:00) 18.6 9.44 (14:40) 5 (14:50) 0 0 0 0 0
07-06-2019 29.1 (15:00) 9.2 (00:00) 19.2 8.61 (16:10) 4.17 (16:50) 0 0 0 0 0
06-06-2019 28.7 (16:20) 8.3 (00:00) 18.5 11.94 (17:30) 5.56 (18:30) 0 0 0 0 0
05-06-2019 26.4 (15:50) 13.9 (00:00) 20.1 11.67 (13:10) 5.56 (12:10) 0 0 0 0 0
04-06-2019 31.6 (14:30) 12 (00:00) 21.8 7.22 (14:40) 4.17 (19:10) 0 0 0 0 0
03-06-2019 31.5 (14:50) 10.7 (00:00) 21.1 7.22 (17:20) 3.89 (17:00) 0 0 0 0 0
02-06-2019 29.9 (15:30) 8.7 (00:00) 19.3 7.22 (18:10) 4.72 (18:30) 0 0 0 0 0
01-06-2019 27.8 (16:00) 8.4 (00:00) 18.1 8.33 (16:10) 3.89 (16:20) 0 0 0 0 0
31-05-2019 26.7 (16:10) 8.5 (00:00) 17.6 8.61 (16:10) 4.72 (17:20) 0 0 0 0 0
30-05-2019 25.5 (15:00) 7.8 (00:00) 16.7 8.06 (17:50) 4.17 (17:10) 0 0 0 0 0
29-05-2019 25.8 (16:10) 11.6 (00:00) 18.7 9.72 (18:00) 5 (17:30) 0 0 0 0 0
28-05-2019 29.3 (16:20) 11.7 (00:00) 20.5 8.33 (12:50) 4.72 (13:40) 0 0 0 0 0
27-05-2019 30.2 (16:10) 9.5 (00:00) 19.9 7.22 (15:00) 4.44 (21:10) 0 0 0 0 0
26-05-2019 26.7 (12:30) 9.7 (00:00) 18.2 6.94 (11:10) 3.89 (02:50) 0 0 0 0 0

Gráficas

Temp. máximas Temp. mínimas Temp. medias Precipitaciones Rachas de viento máximas Velocidades máximas media en intervalos de 10 minutos

Datos horarios

Fecha y hora oficial Temperatura (ºC) Velocidad del viento (km/h) Dirección del viento Racha (km/h) Dirección de racha Precipitación (mm) Presión (hPa) Tendencia (hPa) Humedad (%)
2019-06-24 23:00:00 23.8 6 Oeste 15 Sudoeste 0 942 2.1 57
2019-06-24 22:00:00 24.2 4 Noroeste 10 Nordeste 0 941.1 1.6 54
2019-06-24 21:00:00 26.9 6 Nordeste 18 Nordeste 0 940.4 0.9 45
2019-06-24 20:00:00 28.9 12 Este 22 Este 0 939.9 0.3 39
2019-06-24 19:00:00 30.4 10 Este 24 Este 0 939.5 -0.6 32
2019-06-24 18:00:00 31.7 13 Este 27 Nordeste 0 939.5 -0.8 25
2019-06-24 17:00:00 32.9 10 Este 23 Este 0 939.6 -1.2 21
2019-06-24 16:00:00 33 8 Nordeste 26 Este 0 940.1 -1.1 20
2019-06-24 15:00:00 32.4 9 Este 19 Nordeste 0 940.3 -1.2 21
2019-06-24 14:00:00 30.6 6 Norte 18 Este 0 940.8 -0.9 22
2019-06-24 13:00:00 30.4 7 Sudeste 17 Sudeste 0 941.2 -0.6 21
2019-06-24 12:00:00 28.7 8 Sudeste 18 Sudeste 0 941.5 -0.1 22
2019-06-24 11:00:00 26.9 9 Este 15 Este 0 941.7 0.3 24
2019-06-24 10:00:00 24.2 5 Este 10 Sudeste 0 941.8 0.5 28
2019-06-24 09:00:00 20.9 3 Nordeste 8 Oeste 0 941.6 0.4 33
2019-06-24 08:00:00 16.6 8 Oeste 13 Sudoeste 0 941.4 0.1 38
2019-06-24 07:00:00 12.8 4 Oeste 12 Oeste 0 941.3 -0.1 50
2019-06-24 06:00:00 12.5 4 Oeste 8 Oeste 0 941.2 -0.8 49
2019-06-24 05:00:00 13.2 3 Sudoeste 10 Sudoeste 0 941.3 -1.2 46
2019-06-24 04:00:00 14 2 Sudoeste 6 Sudoeste 0 941.4 -1.1 52
2019-06-24 03:00:00 15.1 3 Noroeste 10 Noroeste 0 942 -0.9 55
2019-06-24 02:00:00 16.4 6 Oeste 10 Oeste 0 942.5 -0.2 48
2019-06-24 01:00:00 17.6 2 Noroeste 9 Noroeste 0 942.5 0.8 47
2019-06-24 00:00:00 18.9 6 Norte 12 Norte 0 942.9 2.1 48
2019-06-23 23:00:00 20.5 7 Nordeste 17 Nordeste 0 942.7 2.4 45
2019-06-23 22:00:00 22.3 7 Nordeste 21 Este 0 941.7 1.9 38
2019-06-23 21:00:00 24.9 6 Nordeste 20 Este 0 940.8 0.8 27
2019-06-23 20:00:00 27.3 10 Este 27 Este 0 940.3 -0.1 20
2019-06-23 19:00:00 28.6 14 Este 28 Este 0 939.8 -0.8 20
2019-06-23 18:00:00 29.7 15 Este 30 Nordeste 0 940 -0.9 21
2019-06-23 17:00:00 29.8 16 Nordeste 32 Nordeste 0 940.4 -0.8 23
2019-06-23 16:00:00 31.2 16 Este 32 Este 0 940.6 -0.9 24
2019-06-23 15:00:00 32.6 13 Este 25 Nordeste 0 940.9 -0.9 18
2019-06-23 14:00:00 31.5 12 Este 26 Nordeste 0 941.2 -0.8 19
2019-06-23 13:00:00 30.4 13 Este 24 Nordeste 0 941.5 -0.6 21
2019-06-23 12:00:00 29.1 10 Este 18 Este 0 941.8 -0.2 29
2019-06-23 11:00:00 27.3 9 Este 18 Este 0 942 0.1 38
2019-06-23 10:00:00 25 4 Este 9 Este 0 942.1 0 36
2019-06-23 09:00:00 21.9 3 Este 12 Sudoeste 0 942 0.2 40
2019-06-23 08:00:00 17 9 Oeste 16 Oeste 0 941.9 0 52
2019-06-23 07:00:00 14.2 7 Oeste 15 Oeste 0 942.1 0.1 63
2019-06-23 06:00:00 13.5 4 Oeste 13 Oeste 0 941.8 -0.5 76
2019-06-23 05:00:00 14.7 5 Oeste 12 Oeste 0 941.9 -0.6 73
2019-06-23 04:00:00 15.3 7 Oeste 11 Oeste 0 942 -0.8 73
2019-06-23 03:00:00 16.6 4 Oeste 14 Oeste 0 942.3 -0.7 73
2019-06-23 02:00:00 18.2 8 Oeste 17 Oeste 0 942.5 -0.1 71
2019-06-23 01:00:00 19.4 9 Oeste 15 Sudoeste 0 942.8 0.9 72
2019-06-23 00:00:00 19.7 6 Oeste 12 Oeste 0 943 1.5 71
2019-06-22 23:00:00 20 4 Sudoeste 12 Sudoeste 0 942.6 1.4 67
2019-06-22 22:00:00 22 4 Norte 12 Nordeste 0 941.9 1.1 58
2019-06-22 21:00:00 24.2 6 Nordeste 19 Nordeste 0 941.5 0.7 51
2019-06-22 20:00:00 25.6 6 Nordeste 28 Este 0 941.2 0.2 47
2019-06-22 19:00:00 27.3 18 Este 32 Este 0 940.8 -0.9 42
2019-06-22 18:00:00 29.1 15 Este 32 Este 0 940.8 -1.4 39
2019-06-22 17:00:00 30.4 15 Este 28 Este 0 941 -1.7 34
2019-06-22 16:00:00 30.7 14 Este 29 Este 0 941.7 -1.5 32
2019-06-22 15:00:00 30 11 Este 33 Nordeste 0 942.2 -1.1 31
2019-06-22 14:00:00 29.9 10 Nordeste 21 Nordeste 0 942.7 -0.8 31
2019-06-22 13:00:00 28.9 8 Este 22 Sudeste 0 943.2 -0.7 31
2019-06-22 12:00:00 28.4 5 Este 15 Este 0 943.3 -0.5 35
2019-06-22 11:00:00 26.9 5 Sudeste 13 Este 0 943.5 -0.2 38
2019-06-22 10:00:00 24.3 5 Este 11 Este 0 943.9 0.6 43
2019-06-22 09:00:00 21.5 3 Sudoeste 10 Sudoeste 0 943.8 0.6 58
2019-06-22 08:00:00 17.4 5 Sudoeste 15 Sudoeste 0 943.7 0.7 77
2019-06-22 07:00:00 15.4 9 Oeste 15 Oeste 0 943.3 0.1 85
2019-06-22 06:00:00 14.8 2 Sudoeste 3 Sudoeste 0 943.2 -0.1 87
2019-06-22 05:00:00 15.8 5 Oeste 10 Oeste 0 943 -0.5 84
2019-06-22 04:00:00 16.1 3 Noroeste 6 Noroeste 0 943.2 -0.2 85
2019-06-22 03:00:00 17.3 3 Noroeste 11 Este 0 943.3 0.3 82
2019-06-22 02:00:00 18.7 8 Este 14 Nordeste 0 943.5 0.9 78
2019-06-22 01:00:00 18.5 4 Nordeste 10 Este 0 943.4 1.9 77
2019-06-22 00:00:00 19.5 4 Noroeste 12 Nordeste 0 943 2.2 73
2019-06-21 23:00:00 20.9 4 Nordeste 10 Nordeste 0 942.6 2.5 67
2019-06-21 22:00:00 22.9 5 Norte 10 Oeste 0 941.5 2.1 60
2019-06-21 21:00:00 25.1 3 Noroeste 19 Este 0 940.8 1.3 51
2019-06-21 20:00:00 26.6 11 Este 26 Este 0 940.1 0.5 45
2019-06-21 19:00:00 28.7 7 Este 21 Este 0 939.4 -0.4 33
2019-06-21 18:00:00 28.9 9 Este 22 Este 0 939.5 -0.7 31
2019-06-21 17:00:00 31.1 12 Sudeste 26 Este 0 939.6 -1 28
2019-06-21 16:00:00 30.6 10 Este 28 Nordeste 0 939.8 -1.2 28
2019-06-21 15:00:00 30.5 9 Este 23 Este 0 940.2 -1 26
2019-06-21 14:00:00 29.3 7 Nordeste 21 Este 0 940.6 -0.7 28
2019-06-21 13:00:00 29.3 13 Este 26 Este 0 941 -0.3 28
2019-06-21 12:00:00 28.5 6 Este 19 Este 0 941.2 0 32
2019-06-21 11:00:00 26.4 6 Sudeste 17 Este 0 941.3 0.3 40
2019-06-21 10:00:00 25.2 4 Este 9 Sudeste 0 941.3 0.8 38
2019-06-21 09:00:00 21.8 3 Este 10 Sudoeste 0 941.2 0.9 48
2019-06-21 08:00:00 15.8 4 Noroeste 8 Noroeste 0 941 0.8 77
2019-06-21 07:00:00 14.5 6 Oeste 18 Oeste 0 940.5 0.5 72
2019-06-21 06:00:00 14.2 5 Sudoeste 12 Oeste 0 940.3 0.3 85
2019-06-21 05:00:00 15.2 7 Oeste 12 Oeste 0 940.2 0.1 80
2019-06-21 04:00:00 14.5 4 Sudoeste 8 Oeste 0 940 -0.2 83
2019-06-21 03:00:00 14.9 2 Sudoeste 6 Noroeste 0 940 -0.2 80
2019-06-21 02:00:00 15.6 2 Oeste 6 Noroeste 0 940.1 0.4 75
2019-06-21 01:00:00 16.9 3 Oeste 7 Nordeste 0 940.2 1.3 79
2019-06-21 00:00:00 18.9 4 Nordeste 12 Nordeste 0 940.2 1.9 75
2019-06-20 23:00:00 20.6 6 Nordeste 13 Nordeste 0 939.7 1.9 68
2019-06-20 22:00:00 22.1 5 Norte 15 Nordeste 0 938.9 1.3 60
2019-06-20 21:00:00 24.7 5 Nordeste 20 Nordeste 0 938.3 0.7 49
2019-06-20 20:00:00 27.5 11 Nordeste 24 Este 0 937.8 0.3 37
2019-06-20 19:00:00 29.2 14 Este 30 Este 0 937.6 -0.2 28
2019-06-20 18:00:00 31 10 Sudeste 30 Este 0 937.6 -0.6 21
2019-06-20 17:00:00 31 16 Este 39 Este 0 937.5 -1.6 26
2019-06-20 16:00:00 31.8 20 Este 36 Este 0 937.8 -1.9 26
2019-06-20 15:00:00 32.8 14 Este 28 Este 0 938.2 -1.9 18
2019-06-20 14:00:00 32.4 7 Este 20 Este 0 939.1 -1.1 20
2019-06-20 13:00:00 32.1 6 Sudeste 13 Sudeste 0 939.7 -0.7 19
2019-06-20 12:00:00 30.7 8 Sudeste 18 Este 0 940.1 -0.4 22
2019-06-20 11:00:00 29.2 6 Este 12 Sudeste 0 940.2 -0.1 24
2019-06-20 10:00:00 26.5 5 Sudeste 15 Sudoeste 0 940.4 0 27
2019-06-20 09:00:00 21.3 10 Sudoeste 19 Sudoeste 0 940.5 0.4 37
2019-06-20 08:00:00 18 13 Sudoeste 22 Oeste 0 940.3 0.1 44
2019-06-20 07:00:00 13 4 Oeste -- -- 0 940.4 0.1 61
2019-06-20 06:00:00 13.4 2 Nordeste 13 Oeste 0 940.1 -0.4 58
2019-06-20 05:00:00 15.1 7 Oeste 12 Sudoeste 0 940.2 -0.3 48
2019-06-20 04:00:00 15.4 6 Oeste 10 Oeste 0 940.3 -0.3 50
2019-06-20 03:00:00 15.9 4 Oeste 6 Sudoeste 0 940.5 0 54
2019-06-20 02:00:00 17.5 3 Noroeste 8 Oeste 0 940.5 0.3 47
2019-06-20 01:00:00 18.7 4 Oeste 9 Noroeste 0 940.6 0.9 46
2019-06-20 00:00:00 20.2 5 Noroeste 9 Noroeste 0 940.5 1.1 43
2019-06-19 23:00:00 22.2 6 Norte 12 Noroeste 0 940.2 1.1 35
2019-06-19 22:00:00 24 6 Norte 12 Norte 0 939.7 0.8 31
2019-06-19 21:00:00 27 3 Norte 17 Este 0 939.4 0.5 30
2019-06-19 20:00:00 29.9 9 Sudeste 30 Este 0 939.1 -0.1 22
2019-06-19 19:00:00 31.4 10 Este 21 Este 0 938.9 -0.8 21
2019-06-19 18:00:00 32 9 Sudeste 26 Sudeste 0 938.9 -1.4 19
2019-06-19 17:00:00 32.6 11 Este 26 Este 0 939.2 -1.9 19
2019-06-19 16:00:00 32.5 10 Nordeste 26 Nordeste 0 939.7 -1.8 18
2019-06-19 15:00:00 32.2 10 Este 28 Este 0 940.3 -1.5 18
2019-06-19 14:00:00 31.7 9 Este 21 Este 0 941.1 -0.9 20
2019-06-19 13:00:00 29.8 8 Este 19 Este 0 941.5 -0.6 21
2019-06-19 12:00:00 29.3 6 Este 15 Nordeste 0 941.8 -0.2 21
2019-06-19 11:00:00 26.9 6 Nordeste 14 Este 0 942 0.2 26
2019-06-19 10:00:00 25 5 Este 10 Este 0 942.1 0.4 28
2019-06-19 09:00:00 21.4 7 Oeste 16 Oeste 0 942 0.5 35
2019-06-19 08:00:00 18.1 8 Oeste 22 Oeste 0 941.8 0.4 42
2019-06-19 07:00:00 15.6 6 Oeste 20 Oeste 0 941.7 0.6 50
2019-06-19 06:00:00 15.5 7 Oeste 15 Oeste 0 941.5 0.1 54
2019-06-19 05:00:00 16.7 9 Oeste 14 Oeste 0 941.4 -0.3 51
2019-06-19 04:00:00 15.5 6 Oeste 14 Oeste 0 941.1 -0.9 59
2019-06-19 03:00:00 16.5 6 Oeste 13 Oeste 0 941.4 -0.6 55
2019-06-19 02:00:00 15.2 3 Oeste 6 Oeste 0 941.7 0.1 61
2019-06-19 01:00:00 16.2 4 Noroeste 6 Noroeste 0 942 1 56
2019-06-19 00:00:00 17.6 4 Noroeste 7 Noroeste 0 942 1.4 50
2019-06-18 23:00:00 19.6 2 Nordeste 9 Noroeste 0 941.6 1.5 42
2019-06-18 22:00:00 21.7 5 Norte 10 Nordeste 0 941 1.2 35
2019-06-18 21:00:00 25.5 5 Nordeste 18 Nordeste 0 940.6 0.8 28
2019-06-18 20:00:00 28.3 9 Este 23 Nordeste 0 940.1 0.1 24
2019-06-18 19:00:00 29.3 15 Nordeste 29 Este 0 939.8 -0.5 22
2019-06-18 18:00:00 31.2 9 Este 20 Sudoeste 0 939.8 -0.9 15
2019-06-18 17:00:00 33.1 9 Sur 24 Sudeste 0 940 -1.4 16
2019-06-18 16:00:00 33 10 Sudeste 29 Nordeste 0 940.3 -1.7 14
2019-06-18 15:00:00 31.7 9 Nordeste 27 Nordeste 0 940.7 -1.6 18
2019-06-18 14:00:00 30.7 7 Nordeste 23 Este 0 941.4 -0.9 19
2019-06-18 13:00:00 29.6 10 Nordeste 23 Este 0 942 -0.5 18
2019-06-18 12:00:00 27.5 8 Este 17 Este 0 942.3 -0.3 21
2019-06-18 11:00:00 26.3 10 Este 16 Este 0 942.3 -0.3 23
2019-06-18 10:00:00 24 5 Este 8 Nordeste 0 942.5 -0.1 26
2019-06-18 09:00:00 21.3 2 Este 10 Oeste 0 942.6 0.3 31
2019-06-18 08:00:00 15.8 8 Oeste 20 Oeste 0 942.6 0.5 40
2019-06-18 07:00:00 10.9 8 Oeste 15 Oeste 0 942.6 0.2 58
2019-06-18 06:00:00 11.5 3 Noroeste 6 Noroeste 0 942.3 -0.6 58
2019-06-18 05:00:00 14 2 Nordeste 14 Oeste 0 942.1 -1 47
2019-06-18 04:00:00 16.3 9 Sudoeste 17 Sudoeste 0 942.4 -1.1 38
2019-06-18 03:00:00 16 13 Oeste 19 Oeste 0 942.9 -0.6 38
2019-06-18 02:00:00 17.2 9 Sudoeste 18 Oeste 0 943.1 -0.1 36
2019-06-18 01:00:00 20 13 Sudoeste 21 Sudoeste 0 943.5 1 29
2019-06-18 00:00:00 21 12 Oeste 23 Oeste 0 943.5 1.4 28
2019-06-17 23:00:00 21.9 15 Oeste 27 Oeste 0 943.2 1.6 29
2019-06-17 22:00:00 23.1 13 Oeste 22 Sur 0 942.5 1.2 27
2019-06-17 21:00:00 25.4 8 Sudoeste 24 Sudoeste 0 942.1 0.8 25
2019-06-17 20:00:00 28.1 8 Sur 27 Sur 0 941.6 -0.1 20
2019-06-17 19:00:00 29.9 10 Sur 31 Sur 0 941.3 -1.1 19
2019-06-17 18:00:00 30 13 Este 32 Este 0 941.3 -1.5 20
2019-06-17 17:00:00 30.7 12 Este 30 Este 0 941.7 -1.9 18
2019-06-17 16:00:00 30.7 16 Este 27 Nordeste 0 942.4 -1.7 16
2019-06-17 15:00:00 31.4 10 Este 22 Nordeste 0 942.8 -1.6 16
2019-06-17 14:00:00 30.6 6 Este 27 Nordeste 0 943.6 -0.9 18
2019-06-17 13:00:00 29.5 12 Este 21 Este 0 944.1 -0.6 19
2019-06-17 12:00:00 28.4 9 Este 16 Nordeste 0 944.4 -0.6 21
2019-06-17 11:00:00 26.6 7 Este 13 Este 0 944.5 -0.3 27
2019-06-17 10:00:00 23.9 4 Sudoeste 16 Sudoeste 0 944.7 0.1 32
2019-06-17 09:00:00 18.9 6 Sudoeste 16 Oeste 0 945 0.5 45
2019-06-17 08:00:00 13.1 7 Sudoeste 13 Sudoeste 0 944.8 0.5 61
2019-06-17 07:00:00 9.8 3 Oeste 9 Sudoeste 0 944.6 -0.1 73
2019-06-17 06:00:00 11.2 4 Oeste 18 Oeste 0 944.5 -0.5 66
2019-06-17 05:00:00 12.7 13 Oeste 21 Oeste 0 944.3 -1 64
2019-06-17 04:00:00 13.1 10 Oeste 15 Oeste 0 944.7 -1 63
2019-06-17 03:00:00 13.3 5 Sudoeste 20 Oeste 0 945 -0.6 70
2019-06-17 02:00:00 14.3 11 Oeste 19 Sudoeste 0 945.3 -0.2 68
2019-06-17 01:00:00 14.7 7 Oeste 12 Oeste 0 945.7 0.6 71
2019-06-17 00:00:00 17.2 6 Oeste 15 Oeste 0 945.6 1 63
2019-06-16 23:00:00 17 6 Oeste 14 Oeste 0 945.5 0.7 66
2019-06-16 22:00:00 17.4 4 Noroeste 9 Oeste 0 945.1 0.9 63
2019-06-16 21:00:00 20.2 3 Norte 10 Este 0 944.6 0.1 56
2019-06-16 20:00:00 21.7 6 Nordeste 20 Nordeste 0 944.8 0.1 48
2019-06-16 19:00:00 21.6 9 Nordeste 18 Este 0 944.2 -1 47
2019-06-16 18:00:00 22.5 10 Este 21 Este 0 944.5 -0.8 47
2019-06-16 17:00:00 22.8 12 Este 22 Este 0 944.7 -1.1 44
2019-06-16 16:00:00 23.5 13 Este 22 Este 0 945.2 -0.8 41
2019-06-16 15:00:00 24.3 12 Este 23 Este 0 945.3 -0.8 32
2019-06-16 14:00:00 25 13 Este 21 Este 0 945.8 -0.5 27
2019-06-16 13:00:00 24.7 7 Nordeste 17 Este 0 946 -0.4 27
2019-06-16 12:00:00 24 9 Este 16 Este 0 946.1 0 30
2019-06-16 11:00:00 22.8 7 Sudeste 13 Sudeste 0 946.3 0.5 31
2019-06-16 10:00:00 21.6 4 Sudeste 8 Este 0 946.4 1.2 37
2019-06-16 09:00:00 19.7 2 Este 12 Sudoeste 0 946.1 1.5 43
2019-06-16 08:00:00 14.3 9 Oeste 15 Oeste 0 945.8 1.2 56
2019-06-16 07:00:00 10.3 3 Oeste 8 Oeste 0 945.2 0.3 72
2019-06-16 06:00:00 11.2 4 Oeste 12 Sudoeste 0 944.6 -0.7 71
2019-06-16 05:00:00 12 4 Oeste 12 Oeste 0 944.6 -0.9 68
2019-06-16 04:00:00 12.6 0 Calma 8 Sudoeste 0 944.9 -0.8 69
2019-06-16 03:00:00 13.6 2 Noroeste 7 Oeste 0 945.3 -0.2 67
2019-06-16 02:00:00 14.7 3 Oeste 7 Oeste 0 945.5 0.7 60
2019-06-16 01:00:00 15.8 6 Oeste 8 Sudoeste 0 945.7 1.6 55
2019-06-16 00:00:00 18 2 Oeste 15 Oeste 0 945.5 2.1 45
2019-06-15 23:00:00 21.1 11 Oeste 19 Oeste 0 944.8 2 32
2019-06-15 22:00:00 22.5 10 Oeste 16 Oeste 0 944.1 1.7 31
2019-06-15 21:00:00 24.3 3 Sudeste 24 Este 0 943.4 0.9 33
2019-06-15 20:00:00 26.4 12 Este 23 Este 0 942.8 -0.1 25
2019-06-15 19:00:00 27.6 9 Este 22 Este 0 942.4 -0.7 22
2019-06-15 18:00:00 27.8 11 Este 24 Nordeste 0 942.5 -1 20
2019-06-15 17:00:00 27.8 9 Nordeste 28 Nordeste 0 942.9 -1.3 19
2019-06-15 16:00:00 28.3 13 Este 23 Este 0 943.1 -1.7 19
2019-06-15 15:00:00 28.1 10 Este 26 Este 0 943.5 -1.6 20
2019-06-15 14:00:00 27.1 10 Este 19 Este 0 944.2 -1 20
2019-06-15 13:00:00 26.4 7 Sudeste 16 Sudeste 0 944.8 -0.4 22
2019-06-15 12:00:00 24.2 6 Sudeste 18 Sudeste 0 945.1 0.3 27
2019-06-15 11:00:00 22.3 6 Este 16 Este 0 945.2 1.2 31
2019-06-15 10:00:00 20.5 5 Este 12 Este 0 945.2 1.5 34
2019-06-15 09:00:00 18 4 Sudeste 10 Oeste 0 944.8 1.8 40
2019-06-15 08:00:00 14.1 7 Oeste 14 Sudoeste 0 944 1.4 50
2019-06-15 07:00:00 9.1 2 Nordeste 6 Norte 0 943.7 1.2 69
2019-06-15 06:00:00 9.9 2 Nordeste 9 Oeste 0 943 0.6 64
2019-06-15 05:00:00 11.1 5 Oeste 11 Oeste 0 942.6 0.3 55
2019-06-15 04:00:00 14.3 5 Oeste 14 Sudoeste 0 942.5 0.2 44
2019-06-15 03:00:00 15.5 6 Sudoeste 13 Sudoeste 0 942.4 0.6 43
2019-06-15 02:00:00 16.6 5 Sudoeste 12 Sudoeste 0 942.3 1 43
2019-06-15 01:00:00 16.2 5 Oeste 11 Sudoeste 0 942.3 2 58
2019-06-15 00:00:00 16.9 5 Oeste 10 Oeste 0 941.8 2.4 55
2019-06-14 23:00:00 19.7 5 Sur 9 Nordeste 0 941.3 2.7 48
2019-06-14 22:00:00 21.3 6 Noroeste 12 Oeste 0 940.3 2.2 42
2019-06-14 21:00:00 25.9 4 Oeste 25 Oeste 0 939.4 1.2 22
2019-06-14 20:00:00 28 15 Sudoeste 36 Sudoeste 0 938.6 0.7 14
2019-06-14 19:00:00 29.2 17 Sudoeste 34 Sudoeste 0 938.1 0 12
2019-06-14 18:00:00 29.7 18 Sudoeste 35 Sudoeste 0 938.2 -0.4 13
2019-06-14 17:00:00 30.5 20 Sudoeste 46 Sudoeste 0 937.9 -1.2 12
2019-06-14 16:00:00 30.6 17 Sudoeste 37 Sudoeste 0 938.1 -1.4 14
2019-06-14 15:00:00 29.8 13 Sur 32 Sudoeste 0 938.6 -1.1 21
2019-06-14 14:00:00 28.8 12 Sur 25 Sur 0 939.1 -0.4 29
2019-06-14 13:00:00 27.1 9 Sudoeste 22 Sur 0 939.5 -0.3 32
2019-06-14 12:00:00 25.9 7 Sur 14 Sudeste 0 939.7 0.7 35
2019-06-14 11:00:00 22.8 6 Sur 11 Sudeste 0 939.5 0.9 50
2019-06-14 10:00:00 20.2 3 Oeste 9 Este 0 939.8 1.9 70
2019-06-14 09:00:00 16.9 2 Sur 5 Noroeste 0 939 2 89
2019-06-14 08:00:00 15.5 0 Calma 11 Sudeste 0.2 938.6 1.8 90
2019-06-14 07:00:00 15.5 5 Nordeste 15 Este 0.2 937.9 0.9 89
2019-06-14 06:00:00 16.2 6 Oeste 30 Sudoeste 4.2 937 -0.8 82
2019-06-14 05:00:00 16.6 6 Oeste 9 Nordeste 0 936.8 -1.2 71
2019-06-14 04:00:00 16.6 4 Sur 7 Noroeste 0 937 -1.4 69
2019-06-14 03:00:00 17 5 Nordeste 11 Nordeste 0 937.8 -0.9 67
2019-06-14 02:00:00 17.1 5 Oeste 18 Oeste 0 938 -0.3 66
2019-06-14 01:00:00 17.1 9 Oeste 19 Oeste 0 938.4 0.8 66
2019-06-14 00:00:00 17.7 11 Sudoeste 19 Sudoeste 0 938.7 2.1 64
2019-06-13 23:00:00 18.1 12 Oeste 22 Oeste 0 938.3 2.2 62
2019-06-13 22:00:00 18.2 3 Noroeste 18 Nordeste 0 937.6 1.5 62
2019-06-13 21:00:00 20.4 9 Este 21 Este 0 936.6 0.4 54
2019-06-13 20:00:00 22.2 12 Este 25 Este 0 936.1 -0.2 48
2019-06-13 19:00:00 23.8 13 Este 25 Este 0 936.1 -0.7 42
2019-06-13 18:00:00 24.8 14 Este 27 Nordeste 0 936.2 -0.9 39
2019-06-13 17:00:00 25.4 13 Este 27 Nordeste 0 936.3 -1.6 39
2019-06-13 16:00:00 25.5 13 Este 27 Nordeste 0 936.8 -1.6 38
2019-06-13 15:00:00 25.5 12 Este 25 Este 0 937.1 -2.1 38
2019-06-13 14:00:00 24.2 10 Este 23 Este 0 937.9 -1.1 40
2019-06-13 13:00:00 22.7 8 Este 26 Nordeste 0 938.4 -1.1 45
2019-06-13 12:00:00 22 12 Este 25 Este 0 939.2 -0.3 48
2019-06-13 11:00:00 19.1 9 Nordeste 20 Nordeste 0 939 -0.1 67
2019-06-13 10:00:00 17.9 8 Este 15 Este 0 939.5 0.6 71
2019-06-13 09:00:00 16.9 4 Norte 10 Este 0 939.5 0.7 73
2019-06-13 08:00:00 15.2 2 Norte 5 Sudoeste 0 939.1 0.1 77
2019-06-13 07:00:00 14.4 2 Oeste 8 Noroeste 0 938.9 -0.3 80
2019-06-13 06:00:00 14.3 3 Oeste 6 Nordeste 0 938.8 -0.7 83
2019-06-13 05:00:00 15 3 Norte 10 Nordeste 0 939 -1.2 83
2019-06-13 04:00:00 14.9 2 Noroeste 8 Norte 0 939.2 -1.1 81
2019-06-13 03:00:00 15.2 3 Norte 10 Nordeste 0 939.5 -0.9 81
2019-06-13 02:00:00 15.7 3 Nordeste 12 Este 0 940.2 0.1 78
2019-06-13 01:00:00 16 4 Este 13 Este 0 940.3 0.8 75
2019-06-13 00:00:00 15.9 7 Este 12 Nordeste 0 940.4 1.6 77
2019-06-12 23:00:00 15.6 5 Nordeste 15 Nordeste 0 940.1 1.7 78
2019-06-12 22:00:00 16.7 5 Nordeste 24 Este 0 939.5 1.4 71
2019-06-12 21:00:00 18.7 11 Este 29 Este 0 938.8 0.3 60
2019-06-12 20:00:00 20.7 13 Este 30 Este 0 938.4 0 51
2019-06-12 19:00:00 22.3 13 Este 32 Este 0 938.1 -0.5 42
2019-06-12 18:00:00 22.1 19 Este 36 Este 0 938.5 -0.6 41
2019-06-12 17:00:00 24.4 20 Este 38 Nordeste 0 938.4 -1.5 31
2019-06-12 16:00:00 24.7 17 Nordeste 34 Nordeste 0 938.6 -1.9 31
2019-06-12 15:00:00 24.4 12 Este 28 Este 0 939.1 -2 32
2019-06-12 14:00:00 23 8 Este 23 Nordeste 0 939.9 -1.6 32
2019-06-12 13:00:00 22.7 5 Sudeste 17 Este 0 940.5 -0.9 35
2019-06-12 12:00:00 20.9 8 Sudeste 17 Nordeste 0 941.1 -0.2 41
2019-06-12 11:00:00 17 3 Nordeste 10 Nordeste 0 941.5 0.6 56
2019-06-12 10:00:00 14.2 2 Nordeste 7 Sudeste 0 941.4 0.7 72
2019-06-12 09:00:00 13.5 2 Nordeste 6 Nordeste 0 941.3 1.1 68
2019-06-12 08:00:00 13.1 4 Nordeste 11 Nordeste 0 940.9 0.9 69
2019-06-12 07:00:00 12.4 4 Nordeste 8 Nordeste 0 940.7 0.8 78
2019-06-12 06:00:00 12.1 2 Oeste 5 Sudoeste 0 940.2 0.2 82
2019-06-12 05:00:00 11.7 3 Noroeste 6 Oeste 0 940 -0.4 84
2019-06-12 04:00:00 12.1 0 Calma 15 Nordeste 0 939.9 -0.5 80
2019-06-12 03:00:00 13.8 9 Este 17 Nordeste 0 940 -0.2 75
2019-06-12 02:00:00 14.1 6 Nordeste 18 Nordeste 0 940.4 0.2 75
2019-06-12 01:00:00 14.7 10 Nordeste 19 Nordeste 0 940.4 1 75
2019-06-12 00:00:00 14.8 8 Nordeste 18 Nordeste 0 940.2 1.7 82
2019-06-11 23:00:00 14.6 6 Nordeste 19 Nordeste 0 940.2 3 83
2019-06-11 22:00:00 15.5 8 Nordeste 30 Nordeste 0 939.4 3.9 81
2019-06-11 21:00:00 18.2 11 Nordeste 32 Este 0 938.5 3.5 68
2019-06-11 20:00:00 20.7 22 Este 39 Nordeste 0 937.2 2.4 59
2019-06-11 19:00:00 23.9 10 Este 24 Nordeste 0 935.5 1 28
2019-06-11 18:00:00 25.8 12 Este 28 Este 0 935 0.5 27
2019-06-11 17:00:00 26.4 13 Este 26 Nordeste 0 934.8 0 27
2019-06-11 16:00:00 27.7 17 Este 32 Nordeste 0 934.5 -0.8 24
2019-06-11 15:00:00 27.5 19 Este 36 Sur 0 934.5 -1.1 21
2019-06-11 14:00:00 31 13 Sur 30 Sur 0 934.8 -1.2 14
2019-06-11 13:00:00 29.1 14 Sudoeste 27 Sudoeste 0 935.3 -1.2 17
2019-06-11 12:00:00 27.8 12 Sudoeste 27 Sur 0 935.6 -1.3 16
2019-06-11 11:00:00 26.7 9 Sudoeste 22 Sudoeste 0 936 -1 18
2019-06-11 10:00:00 24.8 8 Sudoeste 16 Sur 0 936.5 -0.3 21
2019-06-11 09:00:00 20.7 8 Sudoeste 20 Oeste 0 936.9 0 29
2019-06-11 08:00:00 16.4 14 Oeste 22 Oeste 0 937 -0.3 37
2019-06-11 07:00:00 14.7 11 Oeste 21 Oeste 0 936.8 -1 40
2019-06-11 06:00:00 14.2 14 Oeste 22 Oeste 0 936.9 -1.7 43
2019-06-11 05:00:00 14.8 10 Oeste 19 Oeste 0 937.3 -1.6 41
2019-06-11 04:00:00 15.3 12 Oeste 21 Oeste 0 937.8 -1.7 39
2019-06-11 03:00:00 15.8 9 Sudoeste 19 Sudoeste 0 938.6 -1.1 40
2019-06-11 02:00:00 14.4 7 Sudoeste 13 Oeste 0 938.9 -0.8 45
2019-06-11 01:00:00 16.5 9 Sudoeste 17 Sudoeste 0 939.5 0.1 38
2019-06-11 00:00:00 19.1 10 Oeste 21 Oeste 0 939.7 0.9 31
2019-06-10 23:00:00 20.6 13 Oeste 22 Oeste 0 939.7 1.5 27
2019-06-10 22:00:00 21.8 11 Oeste 23 Oeste 0 939.4 1.6 26
2019-06-10 21:00:00 23.6 12 Sudoeste 20 Sudoeste 0 938.8 1.1 23
2019-06-10 20:00:00 25.8 9 Sur 27 Sur 0 938.2 0.1 22
2019-06-10 19:00:00 27.9 13 Sur 30 Sur 0 937.8 -1.1 20
2019-06-10 18:00:00 30.2 10 Sur 26 Sur 0 937.7 -1.9 15
2019-06-10 17:00:00 30.8 9 Sudeste 23 Sudoeste 0 938.1 -2.3 9
2019-06-10 16:00:00 31.1 11 Sudoeste 36 Oeste 0 938.9 -2 10
2019-06-10 15:00:00 29.8 9 Este 23 Este 0 939.6 -1.7 13
2019-06-10 14:00:00 29.2 5 Sudoeste 20 Sudeste 0 940.4 -1.1 16
2019-06-10 13:00:00 27.8 8 Nordeste 23 Este 0 940.9 -1.2 18
2019-06-10 12:00:00 27.7 5 Oeste 13 Sur 0 941.3 -0.7 18
2019-06-10 11:00:00 26 4 Nordeste 17 Este 0 941.5 0 20
2019-06-10 10:00:00 23.9 8 Nordeste 18 Nordeste 0 942.1 0.9 25
2019-06-10 09:00:00 21 6 Sudoeste 17 Noroeste 0 942 1.1 30
2019-06-10 08:00:00 18.3 7 Oeste 13 Oeste 0 941.5 0.4 36
2019-06-10 07:00:00 16.1 6 Sudeste 20 Noroeste 0 941.2 -0.1 41
2019-06-10 06:00:00 18.4 11 Oeste 31 Oeste 0 940.9 -0.6 33
2019-06-10 05:00:00 15.7 7 Sudoeste 18 Oeste 0 941.1 -0.4 43
2019-06-10 04:00:00 16.4 3 Norte 16 Norte 0 941.3 -0.4 51
2019-06-10 03:00:00 17.1 4 Oeste 18 Norte 0 941.5 -0.3 51
2019-06-10 02:00:00 18.5 3 Sudeste 12 Noroeste 0 941.5 -0.4 44
2019-06-10 01:00:00 18.7 4 Oeste 18 Sudoeste 0 941.7 0.4 52
2019-06-10 00:00:00 20 13 Sudoeste 22 Sudoeste 0 941.8 1.1 51
2019-06-09 23:00:00 21.2 7 Oeste 21 Sudoeste 0 941.9 1.5 46
2019-06-09 22:00:00 22.4 11 Oeste 21 Sudoeste 0 941.3 1.4 43
2019-06-09 21:00:00 23.8 5 Oeste 16 Sudoeste 0 940.7 0.7 42
2019-06-09 20:00:00 25.8 7 Sudeste 17 Sudeste 0 940.4 0 37
2019-06-09 19:00:00 26.5 10 Este 27 Este 0 939.9 -1.2 33
2019-06-09 18:00:00 28.4 8 Este 24 Sudeste 0 940 -1.7 27
2019-06-09 17:00:00 28.3 8 Este 21 Este 0 940.4 -1.9 27
2019-06-09 16:00:00 28 8 Nordeste 22 Este 0 941.1 -1.8 30
2019-06-09 15:00:00 27.7 9 Este 21 Este 0 941.7 -1.5 30
2019-06-09 14:00:00 26.3 7 Este 19 Nordeste 0 942.3 -1.2 36
2019-06-09 13:00:00 25.8 6 Nordeste 16 Nordeste 0 942.9 -1 36
2019-06-09 12:00:00 24.9 6 Este 11 Sudeste 0 943.2 -0.4 40
2019-06-09 11:00:00 20.3 4 Sudoeste 9 Sur 0 943.5 0 58
2019-06-09 10:00:00 18.4 3 Sur 7 Este 0 943.9 0.8 66
2019-06-09 09:00:00 16.7 3 Sudoeste 10 Oeste 0 943.6 0.5 70
2019-06-09 08:00:00 15.7 3 Noroeste 17 Oeste 0 943.5 -0.1 73
2019-06-09 07:00:00 15.8 6 Sudoeste 20 Sudoeste 0 943.1 -1 71
2019-06-09 06:00:00 16 8 Sudoeste 17 Sudoeste 0 943.1 -1.8 71
2019-06-09 05:00:00 15.9 9 Sudoeste 19 Oeste 0 943.6 -1.8 71
2019-06-09 04:00:00 15.8 8 Sudoeste 18 Oeste 0 944.1 -1.5 70
2019-06-09 03:00:00 15.9 9 Oeste 20 Oeste 0 944.9 -0.7 72
2019-06-09 02:00:00 15.9 6 Oeste 11 Sudoeste 0 945.4 0 72
2019-06-09 01:00:00 16.8 6 Sudoeste 14 Sudoeste 0 945.6 0.6 69
2019-06-09 00:00:00 15.8 3 Oeste 5 Oeste 0 945.6 0.8 70
2019-06-08 23:00:00 17 3 Noroeste 10 Nordeste 0 945.4 0.8 69
2019-06-08 22:00:00 18.6 4 Noroeste 17 Nordeste 0 945 0.4 63
2019-06-08 21:00:00 20.4 8 Nordeste 21 Nordeste 0 944.8 0.1 57
2019-06-08 20:00:00 22.2 12 Este 23 Este 0 944.6 -0.2 49
2019-06-08 19:00:00 22.9 12 Este 26 Nordeste 0 944.6 -0.6 43
2019-06-08 18:00:00 24.5 15 Este 27 Este 0 944.7 -0.9 37
2019-06-08 17:00:00 25.8 14 Este 28 Este 0 944.8 -1.3 32
2019-06-08 16:00:00 25.4 14 Este 29 Este 0 945.2 -1.4 35
2019-06-08 15:00:00 25.8 14 Este 34 Este 0 945.6 -1.4 35
2019-06-08 14:00:00 25.9 13 Este 29 Este 0 946.1 -1 29
2019-06-08 13:00:00 25.9 10 Este 28 Este 0 946.6 -0.3 30
2019-06-08 12:00:00 24.4 9 Este 24 Nordeste 0 947 0.2 33
2019-06-08 11:00:00 23 9 Este 21 Nordeste 0 947.1 0.8 35
2019-06-08 10:00:00 22.1 7 Este 13 Este 0 946.9 1 34
2019-06-08 09:00:00 19 3 Este 7 Este 0 946.8 1.3 45
2019-06-08 08:00:00 13.5 4 Oeste 9 Sudoeste 0 946.3 1 63
2019-06-08 07:00:00 10.7 0 Calma 7 Oeste 0 945.9 0.5 69
2019-06-08 06:00:00 13.1 8 Oeste 14 Sudoeste 0 945.5 0 57
2019-06-08 05:00:00 11.8 6 Oeste 9 Oeste 0 945.3 -0.3 64
2019-06-08 04:00:00 12.9 3 Oeste 10 Oeste 0 945.4 0.2 62
2019-06-08 03:00:00 14.3 3 Sur 9 Norte 0 945.5 0.4 60
2019-06-08 02:00:00 15.5 5 Norte 13 Este 0 945.6 0.9 54
2019-06-08 01:00:00 16.8 4 Norte 11 Nordeste 0 945.2 1.5 49
2019-06-08 00:00:00 18.7 8 Norte 13 Norte 0 945.1 2.6 43
2019-06-07 23:00:00 18.9 5 Norte 12 Norte 0 944.7 3 45
2019-06-07 22:00:00 21 5 Norte 18 Nordeste 0 943.7 2.5 38
2019-06-07 21:00:00 24.3 7 Este 20 Este 0 942.5 1.7 32
2019-06-07 20:00:00 26 8 Este 26 Este 0 941.7 0.8 29
2019-06-07 19:00:00 26.9 9 Nordeste 27 Este 0 941.2 0.3 28
2019-06-07 18:00:00 27.7 13 Este 27 Este 0 940.8 0.1 25
2019-06-07 17:00:00 28.4 11 Este 31 Nordeste 0 940.9 0 23
2019-06-07 16:00:00 28.9 14 Este 29 Este 0 940.9 -0.3 24
2019-06-07 15:00:00 28.5 10 Nordeste 23 Nordeste 0 940.7 -0.3 23
2019-06-07 14:00:00 28 9 Este 22 Este 0 940.9 -0.1 24
2019-06-07 13:00:00 26.5 7 Nordeste 21 Sudeste 0 941.2 0.7 26
2019-06-07 12:00:00 25.6 8 Sudeste 17 Sudeste 0 941 0.8 28
2019-06-07 11:00:00 23.6 10 Este 17 Este 0 941 1 31
2019-06-07 10:00:00 21.5 7 Este 17 Este 0 940.5 1.2 32
2019-06-07 09:00:00 18.2 7 Sudoeste 20 Oeste 0 940.2 1.6 40
2019-06-07 08:00:00 12.8 11 Oeste 17 Oeste 0 940 1.5 49
2019-06-07 07:00:00 10.1 9 Oeste 18 Oeste 0 939.3 0.8 60
2019-06-07 06:00:00 10.3 7 Oeste 13 Sudoeste 0 938.6 0.3 70
2019-06-07 05:00:00 10.8 6 Oeste 12 Oeste 0 938.5 0.4 66
2019-06-07 04:00:00 9.9 3 Oeste 7 Sudoeste 0 938.5 0.3 72
2019-06-07 03:00:00 11.3 0 Calma 7 Oeste 0 938.3 0 63
2019-06-07 02:00:00 13.7 4 Noroeste 15 Oeste 0 938.1 -0.3 52
2019-06-07 01:00:00 16.5 8 Sudoeste 15 Oeste 0 938.2 0.7 43
2019-06-07 00:00:00 14.5 5 Oeste 12 Oeste 0 938.3 1.3 48
2019-06-06 23:00:00 16 4 Norte 10 Noroeste 0 938.4 1.8 47
2019-06-06 22:00:00 17.8 5 Noroeste 9 Noroeste 0 937.5 1.2 44
2019-06-06 21:00:00 21.3 4 Sudoeste 23 Sudeste 0 937 0.4 33
2019-06-06 20:00:00 23.3 11 Este 34 Este 0 936.6 -0.4 33
2019-06-06 19:00:00 24.1 17 Este 40 Este 0 936.3 -1.4 35
2019-06-06 18:00:00 25.2 15 Este 43 Este 0 936.6 -2 33
2019-06-06 17:00:00 27.1 17 Este 36 Este 0 937 -2.2 25
2019-06-06 16:00:00 27.3 11 Este 27 Este 0 937.7 -2.2 17
2019-06-06 15:00:00 26.8 11 Este 29 Este 0 938.6 -1.7 17
2019-06-06 14:00:00 26 7 Nordeste 19 Este 0 939.2 -1.4 19
2019-06-06 13:00:00 25.5 6 Este 19 Este 0 939.9 -1.1 19
2019-06-06 12:00:00 23.9 6 Este 15 Este 0 940.3 -0.6 20
2019-06-06 11:00:00 21.8 9 Este 16 Nordeste 0 940.6 -0.2 24
2019-06-06 10:00:00 20.6 4 Este 10 Este 0 941 0.5 25
2019-06-06 09:00:00 16.5 6 Sudoeste 13 Sudoeste 0 940.9 0.6 35
2019-06-06 08:00:00 11.7 4 Noroeste 20 Oeste 0 940.8 0.5 51
2019-06-06 07:00:00 8.9 7 Oeste 16 Sudoeste 0 940.5 0 55
2019-06-06 06:00:00 10.8 12 Oeste 22 Oeste 0 940.3 -0.4 45
2019-06-06 05:00:00 11.5 15 Oeste 21 Oeste 0 940.3 -0.5 42
2019-06-06 04:00:00 12 14 Oeste 23 Oeste 0 940.5 -0.2 41
2019-06-06 03:00:00 12.6 11 Oeste 16 Oeste 0 940.7 0.1 39
2019-06-06 02:00:00 14.2 10 Oeste 19 Oeste 0 940.8 0.8 35
2019-06-06 01:00:00 14.3 8 Oeste 12 Oeste 0 940.7 1.5 33
2019-06-06 00:00:00 15.9 6 Sudoeste 16 Oeste 0 940.6 2 32
2019-06-05 23:00:00 18.2 6 Oeste 16 Sudoeste 0 940 1.6 25
2019-06-05 22:00:00 19.7 6 Oeste 19 Noroeste 0 939.2 1.2 23
2019-06-05 21:00:00 21 4 Oeste 15 Noroeste 0 938.6 0.6 24
2019-06-05 20:00:00 22.1 8 Noroeste 21 Noroeste 0 938.4 0.6 21
2019-06-05 19:00:00 23.5 6 Noroeste 23 Oeste 0 938 0.2 20
2019-06-05 18:00:00 24 8 Noroeste 32 Sudoeste 0 938 0.1 19
2019-06-05 17:00:00 24.5 10 Noroeste 36 Noroeste 0 937.8 -0.1 17
2019-06-05 16:00:00 25.3 10 Noroeste 28 Oeste 0 937.8 -0.1 17
2019-06-05 15:00:00 25.1 11 Noroeste 40 Oeste 0 937.9 0.4 15
2019-06-05 14:00:00 24.1 13 Noroeste 42 Noroeste 0 937.9 0.9 14
2019-06-05 13:00:00 24.1 13 Oeste 38 Sudoeste 0 937.9 1.4 13
2019-06-05 12:00:00 23.1 15 Oeste 34 Oeste 0 937.5 1.5 16
2019-06-05 11:00:00 23.4 10 Sudoeste 33 Oeste 0 937 1.4 21
2019-06-05 10:00:00 21.8 17 Oeste 36 Oeste 0 936.5 1.3 27
2019-06-05 09:00:00 20.6 16 Oeste 38 Oeste 0 936 1.1 35
2019-06-05 08:00:00 17.6 8 Sudoeste 15 Sudoeste 0 935.6 0.7 54
2019-06-05 07:00:00 16.8 7 Oeste 23 Sudoeste 0 935.2 0.4 57
2019-06-05 06:00:00 18.6 11 Oeste 25 Oeste 0 934.9 -0.4 49
2019-06-05 05:00:00 17.7 11 Sudoeste 19 Sudoeste 0 934.9 -0.7 52
2019-06-05 04:00:00 14.3 4 Noroeste 11 Sudoeste 0 934.8 -1.1 64
2019-06-05 03:00:00 16 5 Sudoeste 12 Oeste 0 935.3 -0.8 55
2019-06-05 02:00:00 15.4 4 Noroeste 16 Oeste 0 935.6 -0.5 59
2019-06-05 01:00:00 18.5 10 Oeste 20 Oeste 0 935.9 0.3 45
2019-06-05 00:00:00 17.3 5 Noroeste 11 Oeste 0 936.1 0.8 54
2019-06-04 23:00:00 19 3 Oeste 9 Noroeste 0 936.1 0.9 52
2019-06-04 22:00:00 21.2 5 Noroeste 10 Nordeste 0 935.6 0.4 46
2019-06-04 21:00:00 25.1 6 Norte 17 Nordeste 0 935.3 -0.4 33
2019-06-04 20:00:00 27.8 8 Nordeste 26 Este 0 935.2 -1.2 28
2019-06-04 19:00:00 30 11 Nordeste 25 Nordeste 0 935.2 -1.9 23
2019-06-04 18:00:00 30.4 11 Este 21 Nordeste 0 935.7 -2 23
2019-06-04 17:00:00 31.2 9 Nordeste 26 Nordeste 0 936.4 -2.1 23
2019-06-04 16:00:00 31.1 11 Este 25 Este 0 937.1 -2.2 20
2019-06-04 15:00:00 30.8 12 Nordeste 26 Este 0 937.7 -2.1 20
2019-06-04 14:00:00 31.2 11 Este 24 Este 0 938.5 -1.7 19
2019-06-04 13:00:00 30.1 10 Este 17 Este 0 939.3 -1.1 22
2019-06-04 12:00:00 28.3 10 Este 17 Este 0 939.8 -0.7 22
2019-06-04 11:00:00 26.7 7 Este 14 Este 0 940.2 -0.1 25
2019-06-04 10:00:00 25 5 Este 10 Nordeste 0 940.4 0.3 28
2019-06-04 09:00:00 21.3 2 Sur 10 Sudoeste 0 940.5 0.6 36
2019-06-04 08:00:00 15.1 3 Sudoeste 11 Oeste 0 940.3 0 50
2019-06-04 07:00:00 13.4 8 Oeste 18 Oeste 0 940.1 -0.4 52
2019-06-04 06:00:00 12.4 6 Oeste 14 Sudoeste 0 939.9 -1.3 56
2019-06-04 05:00:00 13.5 4 Noroeste 15 Oeste 0 940.3 -1.5 55
2019-06-04 04:00:00 15.2 8 Oeste 15 Oeste 0 940.5 -1.7 46
2019-06-04 03:00:00 13.5 4 Oeste 10 Oeste 0 941.2 -1.2 59
2019-06-04 02:00:00 14.9 3 Sudoeste 6 Noroeste 0 941.8 -1 54
2019-06-04 01:00:00 16.8 3 Noroeste 12 Sudoeste 0 942.2 -0.2 46
2019-06-04 00:00:00 20.1 9 Sur 15 Sur 0 942.4 0.1 34
2019-06-03 23:00:00 21.8 6 Sudoeste 18 Oeste 0 942.8 0.7 30
2019-06-03 22:00:00 23.5 11 Oeste 22 Sudoeste 0 942.4 0.2 28
2019-06-03 21:00:00 25.2 13 Oeste 23 Sudoeste 0 942.3 -0.1 28
2019-06-03 20:00:00 27.2 8 Sudoeste 18 Sur 0 942.1 -0.4 26
2019-06-03 19:00:00 28.5 8 Sur 16 Sur 0 942.2 -0.8 23
2019-06-03 18:00:00 29.5 9 Este 26 Este 0 942.4 -1.3 23
2019-06-03 17:00:00 30 14 Este 24 Este 0 942.5 -1.6 19
2019-06-03 16:00:00 30.8 14 Este 23 Nordeste 0 943 -1.6 18
2019-06-03 15:00:00 31.2 12 Este 21 Este 0 943.7 -1.1 19
2019-06-03 14:00:00 30.6 12 Este 23 Nordeste 0 944.1 -0.8 21
2019-06-03 13:00:00 29.1 8 Este 19 Este 0 944.6 -0.7 22
2019-06-03 12:00:00 28.2 9 Este 17 Este 0 944.8 -0.2 24
2019-06-03 11:00:00 26.1 6 Sudeste 11 Este 0 944.9 0.1 27
2019-06-03 10:00:00 22.8 3 Sudeste 7 Sur 0 945.3 0.9 34
2019-06-03 09:00:00 19.9 0 Calma 5 Este 0 945 0.7 40
2019-06-03 08:00:00 15.3 2 Sur 7 Sur 0 944.8 0.3 51
2019-06-03 07:00:00 10.7 4 Oeste 12 Oeste 0 944.4 -0.2 66
2019-06-03 06:00:00 11.6 2 Norte 11 Oeste 0 944.3 -0.7 63
2019-06-03 05:00:00 12.6 5 Norte 12 Oeste 0 944.5 -0.9 58
2019-06-03 04:00:00 13.8 6 Noroeste 14 Oeste 0 944.6 -1.2 52
2019-06-03 03:00:00 14.9 10 Oeste 15 Oeste 0 945 -0.8 48
2019-06-03 02:00:00 16.2 5 Oeste 21 Oeste 0 945.4 -0.2 44
2019-06-03 01:00:00 14.6 3 Noroeste 17 Sudoeste 0 945.8 0.8 52
2019-06-03 00:00:00 17 5 Oeste 15 Sudoeste 0 945.8 1.1 43
2019-06-02 23:00:00 16.9 4 Sudoeste 11 Noroeste 0 945.6 1.3 45
2019-06-02 22:00:00 19.3 5 Noroeste 12 Norte 0 945 0.8 36
2019-06-02 21:00:00 23.1 5 Nordeste 19 Nordeste 0 944.7 0.3 29
2019-06-02 20:00:00 25.9 10 Este 23 Este 0 944.3 -0.2 21
2019-06-02 19:00:00 27.3 16 Este 26 Este 0 944.2 -0.6 18
2019-06-02 18:00:00 28.7 12 Nordeste 24 Nordeste 0 944.4 -0.8 17
2019-06-02 17:00:00 28.9 12 Nordeste 22 Este 0 944.5 -1.4 17
2019-06-02 16:00:00 29.7 8 Este 22 Este 0 944.8 -1.6 16
2019-06-02 15:00:00 29.3 10 Este 23 Nordeste 0 945.2 -1.4 19
2019-06-02 14:00:00 28.9 9 Este 18 Nordeste 0 945.9 -0.8 19
2019-06-02 13:00:00 27.8 8 Este 18 Este 0 946.4 -0.5 21
2019-06-02 12:00:00 26.3 6 Este 16 Este 0 946.6 -0.1 24
2019-06-02 11:00:00 23.8 7 Este 13 Sudeste 0 946.7 0.2 26
2019-06-02 10:00:00 21.2 3 Este 9 Nordeste 0 946.9 0.4 31
2019-06-02 09:00:00 17.3 2 Norte 5 Nordeste 0 946.7 0.2 45
2019-06-02 08:00:00 11.7 3 Oeste 14 Oeste 0 946.5 -0.2 61
2019-06-02 07:00:00 9.1 3 Norte 22 Oeste 0 946.5 -0.5 66
2019-06-02 06:00:00 10.6 15 Oeste 21 Oeste 0 946.5 -0.7 61
2019-06-02 05:00:00 9 4 Oeste 9 Oeste 0 946.7 -0.8 68
2019-06-02 04:00:00 9.6 4 Oeste 8 Oeste 0 947 -0.7 65
2019-06-02 03:00:00 11.3 3 Oeste 16 Oeste 0 947.2 -0.5 58
2019-06-02 02:00:00 13.2 10 Oeste 15 Oeste 0 947.5 0.1 48
2019-06-02 01:00:00 14.3 9 Oeste 13 Sudoeste 0 947.7 0.9 45
2019-06-02 00:00:00 13.9 6 Oeste 13 Sudoeste 0 947.7 1.1 47
2019-06-01 23:00:00 15.5 5 Oeste 13 Noroeste 0 947.4 1.2 40
2019-06-01 22:00:00 17.4 6 Norte 14 Este 0 946.8 0.7 35
2019-06-01 21:00:00 21.1 5 Nordeste 21 Nordeste 0 946.6 0.4 28
2019-06-01 20:00:00 23.9 11 Este 23 Este 0 946.2 -0.3 22
2019-06-01 19:00:00 25.4 12 Este 26 Nordeste 0 946.1 -0.8 21
2019-06-01 18:00:00 26.3 12 Este 26 Este 0 946.2 -1.3 19
2019-06-01 17:00:00 27.1 12 Este 30 Nordeste 0 946.5 -1.6 16
2019-06-01 16:00:00 27.8 12 Este 23 Este 0 946.9 -1.6 16
2019-06-01 15:00:00 26.8 10 Nordeste 22 Nordeste 0 947.5 -1.4 17
2019-06-01 14:00:00 26.8 9 Este 23 Este 0 948.1 -0.8 18
2019-06-01 13:00:00 25.4 7 Este 18 Nordeste 0 948.5 -0.4 20
2019-06-01 12:00:00 24.7 5 Nordeste 16 Este 0 948.9 0 22
2019-06-01 11:00:00 23 8 Este 14 Este 0 948.9 0.1 22
2019-06-01 10:00:00 20.4 5 Este 9 Sudeste 0 948.9 0.4 34
2019-06-01 09:00:00 17.8 2 Sudeste 5 Sur 0 948.9 0.7 48
2019-06-01 08:00:00 12 3 Nordeste 10 Oeste 0 948.8 0.5 74
2019-06-01 07:00:00 8.4 3 Oeste 5 Sudoeste 0 948.5 0 85
2019-06-01 06:00:00 8.9 3 Oeste 5 Oeste 0 948.2 -0.6 83
2019-06-01 05:00:00 9.8 0 Calma 13 Oeste 0 948.3 -1 79
2019-06-01 04:00:00 11.1 4 Oeste 17 Oeste 0 948.5 -1.3 74
2019-06-01 03:00:00 10.7 3 Oeste 8 Sudoeste 0 948.8 -1 78
2019-06-01 02:00:00 11.9 5 Sudoeste 9 Noroeste 0 949.3 0 73
2019-06-01 01:00:00 12.6 2 Oeste 13 Noroeste 0 949.8 1.1 70
2019-06-01 00:00:00 13.5 5 Noroeste 10 Norte 0 949.8 1.4 65
2019-05-31 23:00:00 14.9 5 Norte 10 Norte 0 949.3 1.1 59
2019-05-31 22:00:00 17 4 Norte 10 Norte 0 948.7 0.6 53
2019-05-31 21:00:00 20.2 6 Nordeste 18 Este 0 948.4 0 42
2019-05-31 20:00:00 22.9 11 Este 23 Este 0 948.2 -0.3 35
2019-05-31 19:00:00 24.4 13 Este 27 Nordeste 0 948.1 -0.8 30
2019-05-31 18:00:00 25 13 Este 30 Nordeste 0 948.4 -0.9 29
2019-05-31 17:00:00 26 14 Este 31 Este 0 948.5 -1.2 27
2019-05-31 16:00:00 26.4 15 Este 31 Este 0 948.9 -1.2 25
2019-05-31 15:00:00 25.9 12 Este 28 Nordeste 0 949.3 -1.1 25
2019-05-31 14:00:00 25.7 13 Este 28 Este 0 949.7 -0.8 26
2019-05-31 13:00:00 24.8 13 Este 24 Este 0 950.1 -0.5 27
2019-05-31 12:00:00 24.4 8 Este 18 Este 0 950.4 0 29
2019-05-31 11:00:00 22.2 9 Este 14 Nordeste 0 950.5 0.1 35
2019-05-31 10:00:00 20.1 5 Este 10 Este 0 950.6 0.7 45
2019-05-31 09:00:00 17 3 Este 9 Sudoeste 0 950.4 0.6 54
2019-05-31 08:00:00 11.3 2 Oeste 17 Oeste 0 950.4 0.3 76
2019-05-31 07:00:00 10.1 10 Oeste 18 Oeste 0 949.9 -0.3 74
2019-05-31 06:00:00 8.8 4 Oeste 11 Oeste 0 949.8 -0.7 85
2019-05-31 05:00:00 8.8 3 Oeste 6 Oeste 0 950.1 -0.9 85
2019-05-31 04:00:00 9.6 4 Noroeste 6 Noroeste 0 950.2 -0.9 83
2019-05-31 03:00:00 11 3 Oeste 13 Oeste 0 950.5 -0.7 77
2019-05-31 02:00:00 12.7 9 Oeste 17 Oeste 0 951 0.2 71
2019-05-31 01:00:00 12.8 6 Sudoeste 11 Sudoeste 0 951.1 1.1 74
2019-05-31 00:00:00 13.6 3 Noroeste 8 Oeste 0 951.2 1.6 69
2019-05-30 23:00:00 14.6 5 Noroeste 9 Noroeste 0 950.8 1.5 62
2019-05-30 22:00:00 16.6 5 Noroeste 9 Noroeste 0 950 0.9 55
2019-05-30 21:00:00 19.8 5 Nordeste 15 Este 0 949.6 0.3 44
2019-05-30 20:00:00 22.2 9 Este 24 Nordeste 0 949.3 -0.2 34
2019-05-30 19:00:00 23.3 13 Este 25 Nordeste 0 949.1 -0.6 31
2019-05-30 18:00:00 24 12 Este 29 Este 0 949.3 -0.6 30
2019-05-30 17:00:00 24.8 13 Este 27 Este 0 949.5 -0.7 29
2019-05-30 16:00:00 25 9 Norte 22 Este 0 949.7 -0.9 30
2019-05-30 15:00:00 25.1 12 Este 26 Este 0 949.9 -1 30
2019-05-30 14:00:00 23.6 12 Nordeste 23 Nordeste 0 950.2 -0.7 31
2019-05-30 13:00:00 23.4 9 Este 24 Sudoeste 0 950.6 -0.3 29
2019-05-30 12:00:00 22.1 11 Este 19 Nordeste 0 950.9 0.3 33
2019-05-30 11:00:00 20.6 9 Este 18 Este 0 950.9 0.7 33
2019-05-30 10:00:00 18.7 5 Este 11 Este 0 950.9 1 44
2019-05-30 09:00:00 16.2 3 Este 8 Oeste 0 950.6 0.9 54
2019-05-30 08:00:00 11.2 10 Oeste 17 Oeste 0 950.2 0.5 70
2019-05-30 07:00:00 8.1 6 Oeste 20 Oeste 0 949.9 0 80
2019-05-30 06:00:00 9.7 12 Oeste 19 Oeste 0 949.7 -0.2 75
2019-05-30 05:00:00 9.6 8 Oeste 15 Sudoeste 0 949.7 -0.4 77
2019-05-30 04:00:00 8.7 5 Oeste 10 Sudoeste 0 949.9 0 83
2019-05-30 03:00:00 9.1 3 Oeste 6 Noroeste 0 949.9 0.3 81
2019-05-30 02:00:00 9.8 4 Noroeste 6 Noroeste 0 950.1 1.2 78
2019-05-30 01:00:00 11.3 2 Noroeste 9 Noroeste 0 949.9 2.1 71
2019-05-30 00:00:00 13.1 5 Norte 11 Norte 0 949.6 2.7 63
2019-05-29 23:00:00 14.3 7 Norte 11 Norte 0 948.9 2.8 59
2019-05-29 22:00:00 15.7 6 Norte 13 Nordeste 0 947.8 2.2 54
2019-05-29 21:00:00 17.8 6 Nordeste 20 Este 0 946.9 1.8 50
2019-05-29 20:00:00 20.6 10 Nordeste 23 Este 0 946.1 0.9 43
2019-05-29 19:00:00 22.4 13 Este 32 Este 0 945.6 0.1 38
2019-05-29 18:00:00 25.2 14 Nordeste 35 Nordeste 0 945.1 -0.5 19
2019-05-29 17:00:00 25.1 13 Nordeste 30 Este 0 945.2 -0.7 19
2019-05-29 16:00:00 25.2 15 Este 31 Nordeste 0 945.5 -0.8 20
2019-05-29 15:00:00 25.1 16 Este 32 Este 0 945.6 -0.9 25
2019-05-29 14:00:00 23.8 15 Este 26 Este 0 945.9 -0.7 29
2019-05-29 13:00:00 22.9 10 Este 25 Este 0 946.3 -0.6 31
2019-05-29 12:00:00 21.6 7 Sudeste 21 Sudeste 0 946.5 0.1 44
2019-05-29 11:00:00 19.9 5 Nordeste 15 Nordeste 0 946.6 0.8 48
2019-05-29 10:00:00 16.6 9 Nordeste 18 Nordeste 0 946.9 1.7 56
2019-05-29 09:00:00 14.8 2 Nordeste 6 Este 0 946.4 1.5 76
2019-05-29 08:00:00 13.3 4 Sudoeste 7 Oeste 0 945.8 1.1 76
2019-05-29 07:00:00 12 5 Oeste 9 Oeste 0 945.2 0.5 82
2019-05-29 06:00:00 12.2 4 Sudoeste 10 Oeste 0 944.9 0.4 84
2019-05-29 05:00:00 12.3 3 Oeste 5 Oeste 0 944.7 0.5 89
2019-05-29 04:00:00 13.5 3 Sudoeste 12 Este 0 944.7 0.9 87
2019-05-29 03:00:00 15.1 6 Este 16 Este 0 944.5 1 84
2019-05-29 02:00:00 15.5 9 Este 15 Este 0 944.2 1.2 85
2019-05-29 01:00:00 15 5 Nordeste 10 Norte 0 943.8 1.8 87
2019-05-29 00:00:00 15.9 3 Norte 12 Nordeste 0 943.5 2.8 83
2019-05-28 23:00:00 17.4 6 Nordeste 21 Este 0 943 3.5 77
2019-05-28 22:00:00 19.1 9 Nordeste 19 Nordeste 0 942 3 71
2019-05-28 21:00:00 21.8 7 Nordeste 18 Este 0 940.7 1.9 60
2019-05-28 20:00:00 25.2 10 Nordeste 22 Nordeste 0 939.5 0.5 48
2019-05-28 19:00:00 26.9 11 Sudeste 26 Este 0 939 -0.4 38
2019-05-28 18:00:00 28.4 5 Sudeste 17 Este 0 938.8 -0.8 29
2019-05-28 17:00:00 28.3 8 Este 22 Sudeste 0 939 -0.8 30
2019-05-28 16:00:00 28.8 9 Este 28 Este 0 939.4 -0.5 28
2019-05-28 15:00:00 28.4 13 Nordeste 30 Nordeste 0 939.6 -0.6 28
2019-05-28 14:00:00 27.8 17 Este 30 Nordeste 0 939.8 -0.5 27
2019-05-28 13:00:00 26.8 16 Nordeste 30 Este 0 939.9 -0.6 36
2019-05-28 12:00:00 25.7 11 Este 20 Este 0 940.2 0 41
2019-05-28 11:00:00 24.2 8 Este 17 Sudeste 0 940.3 0.4 45
2019-05-28 10:00:00 21.9 5 Este 12 Sur 0 940.5 1.1 48
2019-05-28 09:00:00 18.8 6 Sudoeste 13 Sudoeste 0 940.2 1.1 62
2019-05-28 08:00:00 15 2 Este 9 Oeste 0 939.9 0.8 81
2019-05-28 07:00:00 11.9 4 Oeste 9 Oeste 0 939.4 0.6 88
2019-05-28 06:00:00 12.3 3 Oeste 6 Noroeste 0 939.1 0.8 87
2019-05-28 05:00:00 13.4 2 Oeste 8 Sur 0 939.1 0.9 84
2019-05-28 04:00:00 15.2 3 Sudeste 13 Este 0 938.8 0.4 77
2019-05-28 03:00:00 16.2 3 Oeste 9 Sudoeste 0 938.3 -0.4 70
2019-05-28 02:00:00 19.1 8 Sudoeste 14 Oeste 0 938.2 -0.4 59
2019-05-28 01:00:00 20.5 9 Sudoeste 18 Oeste 0 938.4 0.2 45
2019-05-28 00:00:00 20.9 10 Oeste 22 Oeste 0 938.7 0.8 44
2019-05-27 23:00:00 20.9 9 Oeste 14 Oeste 0 938.6 1 42
2019-05-27 22:00:00 21.8 6 Sudoeste 26 Oeste 0 938.2 1.1 42
2019-05-27 21:00:00 22.4 15 Oeste 23 Oeste 0 937.9 0.7 42
2019-05-27 20:00:00 25.3 11 Sudoeste 22 Sur 0 937.6 0.2 31
2019-05-27 19:00:00 27.3 4 Sur 13 Este 0 937.1 -0.8 25
2019-05-27 18:00:00 28 8 Este 23 Nordeste 0 937.2 -1.2 22
2019-05-27 17:00:00 29.1 4 Sudeste 22 Sudeste 0 937.4 -1.8 21
2019-05-27 16:00:00 30.1 9 Sudeste 23 Sudeste 0 937.9 -1.8 22
2019-05-27 15:00:00 29.2 13 Este 26 Este 0 938.4 -1.6 22
2019-05-27 14:00:00 28.6 9 Sudeste 21 Sudeste 0 939.2 -1.4 23
2019-05-27 13:00:00 27 9 Este 19 Sudeste 0 939.7 -1 28
2019-05-27 12:00:00 24.8 9 Sudeste 18 Este 0 940 -0.6 34
2019-05-27 11:00:00 23.8 8 Sudeste 13 Sudeste 0 940.6 -0.1 39
2019-05-27 10:00:00 21.3 4 Sudeste 9 Nordeste 0 940.7 0 44
2019-05-27 09:00:00 17.1 5 Sudoeste 18 Sudoeste 0 940.6 0 57
2019-05-27 08:00:00 12.5 10 Oeste 18 Sudoeste 0 940.7 -0.1 69
2019-05-27 07:00:00 10.2 7 Oeste 19 Sudoeste 0 940.7 -0.6 79
2019-05-27 06:00:00 10.7 5 Oeste 17 Oeste 0 940.6 -0.9 76
2019-05-27 05:00:00 9.6 3 Oeste 10 Oeste 0 940.8 -0.9 85
2019-05-27 04:00:00 10.2 0 Calma 10 Oeste 0 941.3 -0.7 83
2019-05-27 03:00:00 10.6 4 Noroeste 5 Oeste 0 941.5 -0.4 83
2019-05-27 02:00:00 11.8 4 Oeste 9 Sudoeste 0 941.7 0.1 79
2019-05-27 01:00:00 13.3 0 Calma 13 Oeste 0 942 0.7 73
2019-05-27 00:00:00 15.9 11 Oeste 21 Oeste 0 941.9 0.8 63
2019-05-26 23:00:00 17.2 11 Sudoeste 21 Oeste 0 941.6 1 57
2019-05-26 22:00:00 18.1 12 Oeste 21 Oeste 0 941.3 0.8 52
2019-05-26 21:00:00 19.4 13 Oeste 21 Sudoeste 0 941.1 0.6 48
2019-05-26 20:00:00 21.6 12 Sudoeste 23 Sur 0 940.6 -0.2 42
2019-05-26 19:00:00 22.9 6 Sur 17 Sudeste 0 940.5 -0.5 40
2019-05-26 18:00:00 23.9 5 Este 19 Sur 0 940.5 -1 35
2019-05-26 17:00:00 24.3 9 Este 19 Este 0 940.8 -1 35
2019-05-26 16:00:00 24.8 5 Noroeste 25 Este 0 941 -1.2 32
2019-05-26 15:00:00 24.6 9 Este 18 Nordeste 0 941.5 -1.2 31
2019-05-26 14:00:00 25.4 6 Sudeste 17 Sur 0 941.8 -1.3 30
2019-05-26 13:00:00 24.9 5 Este 21 Sur 0 942.2 -1.1 32
2019-05-26 12:00:00 24.9 9 Sur 25 Sur 0 942.7 -0.8 32
2019-05-26 11:00:00 22.7 11 Sur 24 Sur 0 943.1 -0.6 39
2019-05-26 10:00:00 20.4 10 Sudoeste 17 Sudoeste 0 943.3 -0.2 46
2019-05-26 09:00:00 16.3 8 Sudoeste 19 Oeste 0 943.5 0.2 62
2019-05-26 08:00:00 12.4 10 Oeste 20 Oeste 0 943.7 0 72
2019-05-26 07:00:00 10.4 10 Oeste 21 Oeste 0 943.5 -0.5 79
2019-05-26 06:00:00 10.7 10 Oeste 18 Oeste 0 943.3 -1 79
2019-05-26 05:00:00 11.4 13 Oeste 20 Oeste 0 943.7 -1.1 77
2019-05-26 04:00:00 11.7 10 Sudoeste 18 Sudoeste 0 944 -1 76
2019-05-26 03:00:00 11.8 13 Oeste 21 Oeste 0 944.3 -0.6 76
2019-05-26 02:00:00 13 8 Sudoeste 12 Oeste 0 944.8 0.5 75
2019-05-26 01:00:00 13.6 7 Oeste 15 Oeste 0 945 1.2 70
2019-05-26 00:00:00 13.4 7 Oeste 14 Sudoeste 0 944.9 1.7 70